Terminal Aerodrome Forecast
Issued by NWS Indianapolis, IN

Home | Current Version | Previous Version | Text Only | Print | Product List | Glossary On
Versions: 1 2 3 4 5 6 7 8 9 10 11 12 13 14 15 16 17 18 19 20 21 22 23 24 25 26 27 28 29 30 31 32
000
FTUS43 KIND 022300
TAFIND
TAF
KIND 022320Z 0300/0406 10008KT P6SM FEW030 SCT250
     FM030400 07004KT P6SM SKC
     FM031500 07005KT P6SM SCT040
     FM032100 09004KT P6SM BKN035=

USA.gov is the U.S. government's official web portal to all federal, state and local government web resources and services.